createdAt,value
2022-10-26T00:01:55.135Z,1.00
2022-10-26T00:04:26.203Z,1.07
2022-10-26T00:06:59.157Z,0.70
2022-10-26T00:09:30.237Z,0.90
2022-10-26T00:12:01.297Z,0.90
2022-10-26T00:14:34.249Z,0.90
2022-10-26T00:17:05.104Z,0.60
2022-10-26T00:19:39.664Z,0.70
2022-10-26T00:22:12.677Z,0.73
2022-10-26T00:24:43.665Z,0.90
2022-10-26T00:27:14.702Z,0.90
2022-10-26T00:29:45.606Z,1.03
2022-10-26T00:32:16.112Z,0.80
2022-10-26T00:34:46.805Z,0.80
2022-10-26T00:37:20.069Z,0.60
2022-10-26T00:39:51.584Z,0.77
2022-10-26T00:42:25.223Z,0.73
2022-10-26T00:45:04.831Z,0.80
2022-10-26T00:47:44.281Z,0.90
2022-10-26T00:50:21.728Z,0.83
2022-10-26T00:52:57.185Z,0.50
2022-10-26T00:55:35.457Z,0.70
2022-10-26T00:58:08.714Z,0.70
2022-10-26T01:00:39.638Z,0.77
2022-10-26T01:03:11.946Z,0.73
2022-10-26T01:05:46.290Z,0.60
2022-10-26T01:08:20.116Z,0.50
2022-10-26T01:10:51.597Z,0.40
2022-10-26T01:13:23.361Z,0.50
2022-10-26T01:16:05.277Z,0.40
2022-10-26T01:18:45.210Z,0.93
2022-10-26T01:21:48.376Z,0.50
2022-10-26T01:24:55.249Z,0.50
2022-10-26T01:27:32.512Z,0.70
2022-10-26T01:30:33.479Z,0.40
2022-10-26T01:33:24.102Z,0.40
2022-10-26T01:36:03.475Z,0.50
2022-10-26T01:38:42.842Z,0.37
2022-10-26T01:41:21.793Z,0.40
2022-10-26T01:43:57.519Z,0.60
2022-10-26T01:46:33.130Z,0.57
2022-10-26T01:49:09.900Z,0.70
2022-10-26T01:51:43.613Z,0.60
2022-10-26T01:54:14.755Z,0.53
2022-10-26T01:56:48.216Z,0.50
2022-10-26T01:59:41.185Z,0.77
2022-10-26T02:02:48.147Z,0.80
2022-10-26T02:05:42.426Z,0.60
2022-10-26T02:08:30.316Z,0.93
2022-10-26T02:11:14.110Z,1.77
2022-10-26T02:13:50.461Z,0.87
2022-10-26T02:16:27.534Z,0.40
2022-10-26T02:19:08.568Z,0.73
2022-10-26T02:21:45.177Z,1.07
2022-10-26T02:24:19.822Z,1.43
2022-10-26T02:26:54.450Z,0.97
2022-10-26T02:29:26.695Z,1.30
2022-10-26T02:31:59.981Z,1.20
2022-10-26T02:34:36.499Z,1.40
2022-10-26T02:37:09.307Z,1.50
2022-10-26T02:39:42.611Z,2.23
2022-10-26T02:42:14.741Z,0.90
2022-10-26T02:44:49.978Z,1.00
2022-10-26T02:47:22.718Z,1.30
2022-10-26T02:49:57.330Z,1.10
2022-10-26T02:52:34.326Z,1.07
2022-10-26T02:55:12.369Z,1.40
2022-10-26T02:57:45.436Z,1.40
2022-10-26T03:00:19.133Z,1.77
2022-10-26T03:02:55.833Z,1.40
2022-10-26T03:05:34.524Z,1.50
2022-10-26T03:08:06.134Z,1.40
2022-10-26T03:10:39.108Z,1.50
2022-10-26T03:13:10.460Z,1.50
2022-10-26T03:15:41.651Z,1.60
2022-10-26T03:18:13.329Z,1.80
2022-10-26T03:20:48.244Z,1.67
2022-10-26T03:23:19.749Z,1.43
2022-10-26T03:25:50.865Z,1.70
2022-10-26T03:28:21.887Z,1.77
2022-10-26T03:30:53.160Z,1.57
2022-10-26T03:33:27.323Z,2.00
2022-10-26T03:36:02.792Z,1.40
2022-10-26T03:38:34.029Z,1.70
2022-10-26T03:41:05.462Z,1.60
2022-10-26T03:43:36.761Z,1.73
2022-10-26T03:46:07.789Z,1.60
2022-10-26T03:48:39.455Z,1.20
2022-10-26T03:51:12.841Z,1.27
2022-10-26T03:53:44.543Z,1.40
2022-10-26T03:56:16.051Z,1.33
2022-10-26T03:58:47.069Z,1.50
2022-10-26T04:01:18.316Z,1.40
2022-10-26T04:03:49.672Z,1.23
2022-10-26T04:06:22.220Z,1.30
2022-10-26T04:08:54.590Z,1.27
2022-10-26T04:11:28.066Z,1.10
2022-10-26T04:14:00.586Z,1.40
2022-10-26T04:16:33.446Z,1.13
2022-10-26T04:19:06.790Z,1.20
2022-10-26T04:21:40.295Z,1.10
2022-10-26T04:24:13.530Z,1.17
2022-10-26T04:26:46.536Z,1.40
2022-10-26T04:29:17.664Z,1.30
2022-10-26T04:31:48.764Z,1.40
2022-10-26T04:34:19.912Z,1.10
2022-10-26T04:36:53.348Z,1.30
2022-10-26T04:39:24.905Z,1.27
2022-10-26T04:41:57.425Z,1.10
2022-10-26T04:44:28.504Z,1.13
2022-10-26T04:47:00.809Z,0.97
2022-10-26T04:49:31.824Z,1.20
2022-10-26T04:52:04.787Z,1.67
2022-10-26T04:54:35.976Z,1.03
2022-10-26T04:57:07.138Z,1.10
2022-10-26T04:59:39.002Z,1.10
2022-10-26T05:02:10.139Z,1.20
2022-10-26T05:04:41.350Z,1.30
2022-10-26T05:07:14.946Z,0.90
2022-10-26T05:09:45.973Z,1.10
2022-10-26T05:12:17.071Z,0.90
2022-10-26T05:14:48.592Z,1.00
2022-10-26T05:17:19.704Z,1.00
2022-10-26T05:19:56.310Z,1.10
2022-10-26T05:22:29.602Z,1.10
2022-10-26T05:25:00.754Z,1.00
2022-10-26T05:27:32.671Z,1.10
2022-10-26T05:30:03.858Z,1.10
2022-10-26T05:32:35.015Z,1.10
2022-10-26T05:35:06.261Z,1.10
2022-10-26T05:37:40.269Z,1.20
2022-10-26T05:40:12.530Z,1.37
2022-10-26T05:42:43.382Z,1.10
2022-10-26T05:45:14.646Z,1.40
2022-10-26T05:47:46.598Z,1.30
2022-10-26T05:50:17.640Z,1.30
2022-10-26T05:52:52.036Z,1.47
2022-10-26T05:55:23.866Z,1.60
2022-10-26T05:57:54.936Z,1.10
2022-10-26T06:00:27.463Z,1.37
2022-10-26T06:03:11.744Z,0.97
2022-10-26T06:05:54.948Z,1.30
2022-10-26T06:08:31.730Z,1.50
2022-10-26T06:11:03.976Z,1.43
2022-10-26T06:13:36.136Z,1.50
2022-10-26T06:16:32.881Z,2.07
2022-10-26T06:19:16.243Z,2.30
2022-10-26T06:22:00.919Z,1.50
2022-10-26T06:24:40.924Z,1.87
2022-10-26T06:27:26.295Z,1.83
2022-10-26T06:30:04.518Z,1.90
2022-10-26T06:32:36.176Z,2.00
2022-10-26T06:35:22.919Z,1.93
2022-10-26T06:37:56.370Z,2.50
2022-10-26T06:40:29.954Z,2.40
2022-10-26T06:43:14.959Z,1.93
2022-10-26T06:45:52.171Z,1.90
2022-10-26T06:48:32.586Z,1.87
2022-10-26T06:51:04.946Z,2.90
2022-10-26T06:53:43.082Z,2.43
2022-10-26T06:56:18.746Z,2.80
2022-10-26T06:58:52.785Z,2.50
2022-10-26T07:01:24.934Z,2.77
2022-10-26T07:03:58.080Z,2.43
2022-10-26T07:06:29.789Z,2.60
2022-10-26T07:09:01.278Z,2.47
2022-10-26T07:11:36.731Z,2.60
2022-10-26T07:14:08.297Z,2.37
2022-10-26T07:16:40.021Z,2.43
2022-10-26T07:19:11.297Z,2.40
2022-10-26T07:21:42.720Z,2.40
2022-10-26T07:24:14.538Z,2.30
2022-10-26T07:26:48.247Z,2.57
2022-10-26T07:29:19.819Z,2.80
2022-10-26T07:31:51.381Z,2.33
2022-10-26T07:34:23.065Z,2.50
2022-10-26T07:36:54.956Z,2.93
2022-10-26T07:39:26.483Z,2.60
2022-10-26T07:41:59.592Z,3.03
2022-10-26T07:44:31.707Z,2.77
2022-10-26T07:47:02.828Z,3.20
2022-10-26T07:49:34.043Z,2.80
2022-10-26T07:52:05.122Z,3.00
2022-10-26T07:54:36.481Z,2.73
2022-10-26T07:57:09.667Z,3.07
2022-10-26T07:59:40.679Z,3.13
2022-10-26T08:02:13.368Z,3.00
2022-10-26T08:04:44.903Z,2.90
2022-10-26T08:07:16.148Z,3.23
2022-10-26T08:09:46.991Z,3.17
2022-10-26T08:12:23.078Z,3.07
2022-10-26T08:14:54.203Z,3.40
2022-10-26T08:17:25.296Z,3.40
2022-10-26T08:19:56.433Z,3.20
2022-10-26T08:22:27.488Z,3.93
2022-10-26T08:24:58.163Z,3.37
2022-10-26T08:27:31.048Z,4.30
2022-10-26T08:30:01.905Z,3.80
2022-10-26T08:32:34.024Z,3.50
2022-10-26T08:35:05.098Z,3.80
2022-10-26T08:37:36.142Z,3.73
2022-10-26T08:40:08.068Z,3.33
2022-10-26T08:42:46.578Z,3.43
2022-10-26T08:45:33.002Z,3.17
2022-10-26T08:48:15.073Z,3.37
2022-10-26T08:50:49.162Z,3.60
2022-10-26T08:53:24.738Z,3.63
2022-10-26T08:56:00.300Z,3.17
2022-10-26T08:58:39.434Z,3.13
2022-10-26T09:01:12.934Z,3.37
2022-10-26T09:03:44.442Z,3.27
2022-10-26T09:06:27.284Z,3.20
2022-10-26T09:09:07.902Z,3.43
2022-10-26T09:11:55.313Z,2.97
2022-10-26T09:14:39.924Z,2.90
2022-10-26T09:17:20.279Z,3.20
2022-10-26T09:20:13.611Z,2.67
2022-10-26T09:22:53.812Z,2.60
2022-10-26T09:25:26.193Z,2.93
2022-10-26T09:28:00.608Z,3.77
2022-10-26T09:30:33.894Z,3.37
2022-10-26T09:33:15.936Z,2.97
2022-10-26T09:35:51.773Z,3.43
2022-10-26T09:38:27.657Z,3.40
2022-10-26T09:41:02.817Z,3.37
2022-10-26T09:43:40.891Z,3.10
2022-10-26T09:46:21.097Z,2.83
2022-10-26T09:48:55.366Z,2.93
2022-10-26T09:51:28.120Z,2.73
2022-10-26T09:54:02.046Z,3.07
2022-10-26T09:56:33.669Z,3.40
2022-10-26T09:59:08.540Z,3.27
2022-10-26T10:01:42.630Z,3.30
2022-10-26T10:04:27.454Z,3.70
2022-10-26T10:07:19.151Z,3.50
2022-10-26T10:10:17.863Z,3.57
2022-10-26T10:12:52.065Z,3.47
2022-10-26T10:15:24.653Z,3.30
2022-10-26T10:17:59.314Z,3.20
2022-10-26T10:20:35.044Z,4.23
2022-10-26T10:23:06.877Z,3.50
2022-10-26T10:25:40.119Z,3.23
2022-10-26T10:28:24.853Z,3.30
2022-10-26T10:31:00.367Z,3.20
2022-10-26T10:33:53.925Z,3.50
2022-10-26T10:36:27.731Z,2.83
2022-10-26T10:38:59.509Z,3.33
2022-10-26T10:41:34.061Z,3.30
2022-10-26T10:44:10.049Z,3.00
2022-10-26T10:46:41.686Z,2.40
2022-10-26T10:49:24.657Z,2.57
2022-10-26T10:51:56.289Z,2.90
2022-10-26T10:54:32.811Z,2.63
2022-10-26T10:57:14.755Z,2.60
2022-10-26T11:00:04.271Z,3.00
2022-10-26T11:03:04.379Z,2.80
2022-10-26T11:05:50.448Z,2.57
2022-10-26T11:08:25.938Z,2.40
2022-10-26T11:11:02.227Z,2.70
2022-10-26T11:13:38.769Z,2.47
2022-10-26T11:16:16.713Z,2.37
2022-10-26T11:18:51.787Z,2.60
2022-10-26T11:21:31.599Z,2.67
2022-10-26T11:24:14.238Z,2.43
2022-10-26T11:26:53.449Z,2.30
2022-10-26T11:29:39.408Z,2.37
2022-10-26T11:32:19.440Z,2.27
2022-10-26T11:34:59.870Z,2.07
2022-10-26T11:40:27.669Z,1.80
2022-10-26T11:43:07.038Z,2.10
2022-10-26T11:45:42.199Z,1.80
2022-10-26T11:48:23.287Z,1.70
2022-10-26T11:50:56.943Z,1.77
2022-10-26T11:53:34.413Z,1.40
2022-10-26T11:56:08.421Z,1.73
2022-10-26T11:58:40.449Z,1.80
2022-10-26T12:01:13.902Z,2.20
2022-10-26T12:03:49.497Z,1.80
2022-10-26T12:06:24.090Z,2.10
2022-10-26T12:09:04.575Z,2.20
2022-10-26T12:11:43.526Z,2.20
2022-10-26T12:14:24.261Z,2.50
2022-10-26T12:17:03.925Z,2.20
2022-10-26T12:19:47.005Z,2.40
2022-10-26T12:22:20.578Z,2.37
2022-10-26T12:25:14.799Z,2.23
2022-10-26T12:28:01.382Z,1.80
2022-10-26T12:30:34.823Z,1.97
2022-10-26T12:33:13.961Z,1.87
2022-10-26T12:35:47.476Z,1.87
2022-10-26T12:39:08.349Z,2.00
2022-10-26T12:41:43.715Z,2.30
2022-10-26T12:44:36.088Z,2.33
2022-10-26T12:47:08.594Z,1.90
2022-10-26T12:50:03.528Z,2.30
2022-10-26T12:52:46.008Z,2.40
2022-10-26T12:56:04.124Z,2.13
2022-10-26T12:59:10.408Z,2.60
2022-10-26T13:02:00.119Z,2.43
2022-10-26T13:04:54.409Z,2.17
2022-10-26T13:07:29.120Z,2.40
2022-10-26T13:10:05.313Z,2.30
2022-10-26T13:12:50.447Z,2.10
2022-10-26T13:15:30.681Z,2.10
2022-10-26T13:18:13.866Z,2.00
2022-10-26T13:20:57.195Z,2.00
2022-10-26T13:23:30.338Z,1.77
2022-10-26T13:26:10.390Z,2.00
2022-10-26T13:28:53.515Z,2.00
2022-10-26T13:32:01.430Z,2.00
2022-10-26T13:34:36.285Z,1.70
2022-10-26T13:37:21.217Z,1.43
2022-10-26T13:39:56.904Z,1.63
2022-10-26T13:42:30.926Z,1.33
2022-10-26T13:45:08.270Z,1.13
2022-10-26T13:47:46.962Z,1.10
2022-10-26T13:50:23.023Z,1.47
2022-10-26T13:52:58.173Z,0.93
2022-10-26T13:55:33.669Z,1.00
2022-10-26T13:58:24.781Z,0.80
2022-10-26T14:01:14.659Z,0.70
2022-10-26T14:03:46.767Z,1.00
2022-10-26T14:06:24.473Z,0.60
2022-10-26T14:08:57.974Z,0.60
2022-10-26T14:11:37.923Z,0.70
2022-10-26T14:14:09.241Z,0.80
2022-10-26T14:16:41.366Z,0.40
2022-10-26T14:19:19.407Z,0.73
2022-10-26T14:21:53.626Z,0.50
2022-10-26T14:24:45.240Z,0.67
2022-10-26T14:27:19.439Z,0.97
2022-10-26T14:30:16.694Z,0.70
2022-10-26T14:32:41.788Z,0.77
2022-10-26T14:35:15.987Z,0.80
2022-10-26T14:37:54.091Z,1.20
2022-10-26T14:40:28.775Z,0.83
2022-10-26T14:43:01.425Z,1.00
2022-10-26T14:45:50.064Z,0.70
2022-10-26T14:48:27.337Z,1.00
2022-10-26T14:51:06.729Z,0.80
2022-10-26T14:53:42.588Z,1.10
2022-10-26T14:56:34.047Z,1.00
2022-10-26T14:59:14.476Z,0.87
2022-10-26T15:01:55.179Z,0.80
2022-10-26T15:04:33.521Z,0.80
2022-10-26T15:07:20.832Z,0.90
2022-10-26T15:09:55.100Z,1.00
2022-10-26T15:12:33.154Z,1.00
2022-10-26T15:17:57.419Z,0.90
2022-10-26T15:20:31.053Z,1.07
2022-10-26T15:23:04.451Z,1.20
2022-10-26T15:25:38.042Z,0.90
2022-10-26T15:28:23.387Z,1.00
2022-10-26T15:31:05.658Z,0.90
2022-10-26T15:33:37.318Z,1.40
2022-10-26T15:36:19.140Z,1.13
2022-10-26T15:38:51.118Z,1.20
2022-10-26T15:41:29.696Z,1.10
2022-10-26T15:44:02.774Z,1.20
2022-10-26T15:46:35.878Z,1.23
2022-10-26T15:49:08.447Z,1.77
2022-10-26T15:51:41.225Z,1.23
2022-10-26T15:54:13.573Z,1.40
2022-10-26T15:56:47.324Z,1.50
2022-10-26T15:59:20.143Z,1.70
2022-10-26T16:01:53.372Z,1.53
2022-10-26T16:04:24.548Z,1.60
2022-10-26T16:06:58.068Z,1.93
2022-10-26T16:09:28.877Z,1.73
2022-10-26T16:12:02.057Z,2.20
2022-10-26T16:14:33.597Z,1.83
2022-10-26T16:17:05.402Z,1.97
2022-10-26T16:19:37.764Z,2.00
2022-10-26T16:22:09.271Z,1.97
2022-10-26T16:24:40.699Z,1.77
2022-10-26T16:27:13.564Z,1.67
2022-10-26T16:29:44.431Z,2.00
2022-10-26T16:32:15.574Z,1.90
2022-10-26T16:34:46.606Z,2.33
2022-10-26T16:37:18.486Z,2.07
2022-10-26T16:39:49.896Z,1.83
2022-10-26T16:42:24.067Z,1.83
2022-10-26T16:44:57.603Z,2.20
2022-10-26T16:47:31.685Z,2.43
2022-10-26T16:50:02.800Z,1.80
2022-10-26T16:52:34.320Z,2.00
2022-10-26T16:55:06.858Z,2.30
2022-10-26T16:57:41.498Z,2.03
2022-10-26T17:00:13.914Z,1.87
2022-10-26T17:02:44.959Z,1.47
2022-10-26T17:05:16.073Z,2.03
2022-10-26T17:07:47.197Z,2.30
2022-10-26T17:10:18.014Z,2.20
2022-10-26T17:12:52.221Z,1.97
2022-10-26T17:15:28.467Z,1.93
2022-10-26T17:17:59.961Z,2.10
2022-10-26T17:20:31.277Z,1.70
2022-10-26T17:23:02.540Z,1.63
2022-10-26T17:25:37.558Z,1.63
2022-10-26T17:28:11.578Z,1.67
2022-10-26T17:30:43.401Z,2.43
2022-10-26T17:33:14.956Z,1.60
2022-10-26T17:35:46.066Z,2.53
2022-10-26T17:38:17.228Z,1.77
2022-10-26T17:40:48.898Z,1.77
2022-10-26T17:43:21.930Z,1.80
2022-10-26T17:45:52.789Z,1.63
2022-10-26T17:48:23.664Z,1.60
2022-10-26T17:50:55.837Z,1.43
2022-10-26T17:53:27.434Z,1.37
2022-10-26T17:56:05.099Z,1.60
2022-10-26T17:58:39.267Z,1.43
2022-10-26T18:01:12.673Z,1.23
2022-10-26T18:03:45.146Z,1.70
2022-10-26T18:06:18.945Z,1.60
2022-10-26T18:08:50.118Z,1.70
2022-10-26T18:11:26.431Z,1.70
2022-10-26T18:14:00.828Z,1.53
2022-10-26T18:16:32.288Z,1.60
2022-10-26T18:19:05.318Z,1.80
2022-10-26T18:21:38.897Z,1.40
2022-10-26T18:24:14.294Z,1.63
2022-10-26T18:26:45.347Z,1.37
2022-10-26T18:29:20.051Z,1.77
2022-10-26T18:31:51.580Z,1.33
2022-10-26T18:34:23.489Z,1.60
2022-10-26T18:36:54.571Z,1.40
2022-10-26T18:39:26.120Z,1.37
2022-10-26T18:41:57.216Z,1.70
2022-10-26T18:44:30.750Z,1.77
2022-10-26T18:47:01.842Z,1.40
2022-10-26T18:49:32.892Z,2.10
2022-10-26T18:52:03.977Z,1.73
2022-10-26T18:54:34.968Z,1.63
2022-10-26T18:57:06.081Z,1.50
2022-10-26T18:59:38.562Z,2.37
2022-10-26T19:02:09.913Z,2.13
2022-10-26T19:04:40.968Z,2.10
2022-10-26T19:07:12.104Z,1.70
2022-10-26T19:09:42.629Z,2.43
2022-10-26T19:12:13.650Z,1.80
2022-10-26T19:14:46.618Z,2.13
2022-10-26T19:17:17.609Z,2.20
2022-10-26T19:19:48.660Z,2.63
2022-10-26T19:22:19.701Z,1.90
2022-10-26T19:24:50.786Z,2.00
2022-10-26T19:27:21.492Z,2.77
2022-10-26T19:29:54.385Z,1.90
2022-10-26T19:32:25.603Z,1.97
2022-10-26T19:34:56.757Z,2.00
2022-10-26T19:37:28.616Z,1.80
2022-10-26T19:39:59.661Z,2.30
2022-10-26T19:42:34.411Z,2.50
2022-10-26T19:45:07.864Z,2.10
2022-10-26T19:47:39.563Z,2.17
2022-10-26T19:50:11.209Z,2.43
2022-10-26T19:52:42.811Z,2.03
2022-10-26T19:55:14.105Z,2.10
2022-10-26T19:57:47.390Z,2.10
2022-10-26T20:00:23.136Z,1.83
2022-10-26T20:02:54.378Z,2.17
2022-10-26T20:05:28.525Z,2.23
2022-10-26T20:07:59.643Z,1.97
2022-10-26T20:10:30.678Z,1.90
2022-10-26T20:13:02.151Z,2.00
2022-10-26T20:15:35.363Z,1.87
2022-10-26T20:18:06.819Z,1.53
2022-10-26T20:20:41.216Z,1.90
2022-10-26T20:23:13.793Z,2.30
2022-10-26T20:25:50.219Z,1.63
2022-10-26T20:28:22.253Z,2.33
2022-10-26T20:30:55.477Z,1.90
2022-10-26T20:33:26.506Z,2.10
2022-10-26T20:36:01.716Z,2.20
2022-10-26T20:38:33.393Z,1.70
2022-10-26T20:41:07.908Z,1.63
2022-10-26T20:43:44.408Z,2.03
2022-10-26T20:46:25.332Z,2.20
2022-10-26T20:48:57.805Z,1.83
2022-10-26T20:51:56.661Z,1.57
2022-10-26T20:54:41.325Z,1.67
2022-10-26T20:57:17.568Z,1.60
2022-10-26T20:59:50.865Z,1.60
2022-10-26T21:02:24.473Z,1.60
2022-10-26T21:04:55.496Z,1.60
2022-10-26T21:07:26.513Z,1.80
2022-10-26T21:09:57.789Z,1.50
2022-10-26T21:12:28.836Z,1.87
2022-10-26T21:15:00.741Z,1.60
2022-10-26T21:17:36.554Z,1.23
2022-10-26T21:20:07.797Z,1.67
2022-10-26T21:22:38.851Z,1.30
2022-10-26T21:25:11.101Z,1.90
2022-10-26T21:27:42.141Z,1.53
2022-10-26T21:30:14.504Z,1.30
2022-10-26T21:32:47.983Z,1.30
2022-10-26T21:35:19.192Z,1.43
2022-10-26T21:37:51.545Z,1.47
2022-10-26T21:40:23.266Z,1.63
2022-10-26T21:42:55.429Z,1.00
2022-10-26T21:45:26.428Z,1.50
2022-10-26T21:47:59.445Z,1.33
2022-10-26T21:50:30.483Z,1.10
2022-10-26T21:53:01.997Z,1.60
2022-10-26T21:55:33.272Z,1.60
2022-10-26T21:58:04.707Z,1.40
2022-10-26T22:00:35.616Z,1.40
2022-10-26T22:03:08.713Z,1.30
2022-10-26T22:05:43.660Z,1.40
2022-10-26T22:08:16.873Z,1.33
2022-10-26T22:10:47.945Z,1.30
2022-10-26T22:13:18.747Z,1.17
2022-10-26T22:15:49.738Z,1.13
2022-10-26T22:18:23.159Z,1.30
2022-10-26T22:21:00.233Z,1.47
2022-10-26T22:23:31.520Z,1.37
2022-10-26T22:26:06.021Z,1.40
2022-10-26T22:28:41.699Z,1.20
2022-10-26T22:31:16.972Z,1.30
2022-10-26T22:33:54.644Z,1.40
2022-10-26T22:36:26.157Z,1.83
2022-10-26T22:38:57.597Z,1.63
2022-10-26T22:41:28.666Z,1.30
2022-10-26T22:43:59.337Z,1.20
2022-10-26T22:46:31.244Z,1.20
2022-10-26T22:49:05.376Z,1.80
2022-10-26T22:51:37.601Z,1.50
2022-10-26T22:54:09.402Z,1.70
2022-10-26T22:56:42.673Z,1.60
2022-10-26T22:59:14.050Z,1.73
2022-10-26T23:01:46.389Z,1.60
2022-10-26T23:04:20.624Z,1.60
2022-10-26T23:06:51.684Z,1.87
2022-10-26T23:09:23.668Z,1.63
2022-10-26T23:11:55.289Z,1.97
2022-10-26T23:14:26.553Z,1.70
2022-10-26T23:16:57.571Z,1.90
2022-10-26T23:19:30.405Z,1.80
2022-10-26T23:22:01.669Z,1.53
2022-10-26T23:24:32.643Z,1.80
2022-10-26T23:27:04.154Z,1.90
2022-10-26T23:29:35.060Z,2.10
2022-10-26T23:32:06.294Z,1.50
2022-10-26T23:34:39.362Z,1.90
2022-10-26T23:37:10.439Z,1.50
2022-10-26T23:39:41.442Z,1.50
2022-10-26T23:42:12.350Z,1.87
2022-10-26T23:44:43.269Z,2.40
2022-10-26T23:47:14.145Z,1.50
2022-10-26T23:49:47.036Z,1.90
2022-10-26T23:52:18.113Z,2.27
2022-10-26T23:57:25.300Z,1.70
2022-10-26T23:59:56.720Z,1.50
